Time;durP1;ratioP1;P1;durP2;ratioP2;P2;SDS_P1;SDS_P2;PMS_P1;PMS_P2;Temp;Humidity;BMP_temperature;BMP_pressure;BME280_temperature;BME280_humidity;BME280_pressure;Samples;Min_cycle;Max_cycle;Signal;HPM_P1;HPM_P2
2021/08/19 00:01:51;;;;;;;4.28;2.85;;;;;;;;;;5106777;27;20397;-90
2021/08/19 00:04:18;;;;;;;4.05;2.67;;;;;;;;;;5084604;27;20404;-91
2021/08/19 00:06:44;;;;;;;3.88;2.80;;;;;;;;;;5106675;27;20749;-90
2021/08/19 00:09:13;;;;;;;4.68;2.90;;;;;;;;;;5099816;27;20398;-91
2021/08/19 00:11:40;;;;;;;4.40;2.90;;;;;;;;;;5109650;27;20943;-91
2021/08/19 00:14:07;;;;;;;3.87;2.40;;;;;;;;;;5104902;27;20449;-91
2021/08/19 00:16:33;;;;;;;4.73;2.80;;;;;;;;;;5107556;27;20424;-90
2021/08/19 00:19:00;;;;;;;5.30;2.70;;;;;;;;;;5104535;27;20400;-90
2021/08/19 00:21:27;;;;;;;3.70;2.67;;;;;;;;;;5104738;27;20401;-90
2021/08/19 00:23:55;;;;;;;6.22;2.53;;;;;;;;;;5105118;27;20411;-89
2021/08/19 00:26:24;;;;;;;4.55;2.70;;;;;;;;;;5095714;27;20439;-90
2021/08/19 00:28:50;;;;;;;3.58;2.50;;;;;;;;;;5100360;27;20910;-88
2021/08/19 00:31:20;;;;;;;3.88;2.60;;;;;;;;;;5103788;27;20466;-91
2021/08/19 00:33:46;;;;;;;4.13;2.83;;;;;;;;;;5096363;27;20420;-91
2021/08/19 00:36:13;;;;;;;3.08;2.30;;;;;;;;;;5095488;27;20424;-90
2021/08/19 00:38:40;;;;;;;3.22;2.28;;;;;;;;;;5097057;27;20396;-91
2021/08/19 00:41:07;;;;;;;3.70;2.45;;;;;;;;;;5104690;27;20404;-90
2021/08/19 00:43:35;;;;;;;3.50;2.60;;;;;;;;;;5094664;27;20397;-91
2021/08/19 00:46:03;;;;;;;3.20;2.53;;;;;;;;;;5093083;27;20400;-90
2021/08/19 00:48:31;;;;;;;3.83;2.78;;;;;;;;;;5095665;27;20408;-90
2021/08/19 00:50:58;;;;;;;3.67;2.55;;;;;;;;;;5096814;27;20408;-89
2021/08/19 00:53:25;;;;;;;3.70;2.45;;;;;;;;;;5104585;27;20401;-90
2021/08/19 00:55:52;;;;;;;3.40;2.60;;;;;;;;;;5096045;27;20400;-90
2021/08/19 00:58:19;;;;;;;3.90;2.70;;;;;;;;;;5090493;27;20461;-91
2021/08/19 01:00:47;;;;;;;3.67;2.50;;;;;;;;;;5096282;27;20410;-90
2021/08/19 01:03:14;;;;;;;4.35;2.70;;;;;;;;;;5093383;27;20401;-91
2021/08/19 01:05:41;;;;;;;3.80;2.40;;;;;;;;;;5096269;27;20738;-89
2021/08/19 01:08:09;;;;;;;4.45;2.70;;;;;;;;;;5101777;27;20468;-89
2021/08/19 01:10:36;;;;;;;4.53;2.80;;;;;;;;;;5103938;27;20532;-91
2021/08/19 01:13:04;;;;;;;3.30;2.60;;;;;;;;;;5100725;27;20490;-90
2021/08/19 01:15:31;;;;;;;3.57;2.30;;;;;;;;;;5096288;27;20408;-90
2021/08/19 01:18:00;;;;;;;3.50;2.77;;;;;;;;;;5096645;27;20538;-89
2021/08/19 01:20:28;;;;;;;3.95;2.75;;;;;;;;;;5091673;27;20404;-89
2021/08/19 01:22:57;;;;;;;3.92;2.65;;;;;;;;;;5092247;27;20400;-90
2021/08/19 01:25:24;;;;;;;4.47;2.40;;;;;;;;;;5094151;27;20400;-90
2021/08/19 01:27:54;;;;;;;4.18;2.47;;;;;;;;;;5095956;28;20901;-89
2021/08/19 01:30:21;;;;;;;4.30;2.70;;;;;;;;;;5096500;27;20549;-91
2021/08/19 01:32:48;;;;;;;3.47;2.58;;;;;;;;;;5107977;28;20410;-91
2021/08/19 01:35:21;;;;;;;4.18;2.65;;;;;;;;;;5107340;28;20931;-90
2021/08/19 01:37:48;;;;;;;3.80;2.50;;;;;;;;;;5078672;28;20416;-89
2021/08/19 01:40:15;;;;;;;3.20;2.58;;;;;;;;;;5090358;28;21287;-90
2021/08/19 01:42:43;;;;;;;3.20;2.60;;;;;;;;;;5100802;28;20447;-90
2021/08/19 01:45:12;;;;;;;3.70;2.67;;;;;;;;;;5089479;28;20793;-90
2021/08/19 01:47:40;;;;;;;3.73;2.57;;;;;;;;;;5096254;28;20444;-90
2021/08/19 01:50:07;;;;;;;4.77;2.30;;;;;;;;;;5075879;28;20418;-89
2021/08/19 01:52:34;;;;;;;3.25;2.25;;;;;;;;;;5098795;28;20454;-92
2021/08/19 01:55:01;;;;;;;3.42;2.35;;;;;;;;;;5096275;28;20424;-91
2021/08/19 01:57:28;;;;;;;3.83;2.30;;;;;;;;;;5104160;27;20414;-91
2021/08/19 01:59:55;;;;;;;5.07;2.50;;;;;;;;;;5100364;27;20613;-91
2021/08/19 02:02:24;;;;;;;3.17;2.45;;;;;;;;;;5102801;27;20396;-91
2021/08/19 02:04:51;;;;;;;3.83;2.60;;;;;;;;;;5102837;27;20407;-90
2021/08/19 02:07:18;;;;;;;2.70;2.28;;;;;;;;;;5105274;27;20408;-92
2021/08/19 02:09:44;;;;;;;4.32;2.60;;;;;;;;;;5111071;27;20884;-91
2021/08/19 02:12:11;;;;;;;3.15;2.15;;;;;;;;;;5116484;27;20393;-92
2021/08/19 02:14:38;;;;;;;3.25;2.40;;;;;;;;;;5115392;27;20906;-92
2021/08/19 02:17:05;;;;;;;4.45;2.42;;;;;;;;;;5121494;27;20408;-92
2021/08/19 02:19:33;;;;;;;2.45;2.25;;;;;;;;;;5115443;27;20404;-92
2021/08/19 02:22:00;;;;;;;3.20;2.03;;;;;;;;;;5116591;27;20402;-91
2021/08/19 02:24:27;;;;;;;4.47;2.33;;;;;;;;;;5116401;27;20480;-92
2021/08/19 02:26:54;;;;;;;4.60;2.45;;;;;;;;;;5119930;27;20401;-93
2021/08/19 02:29:21;;;;;;;4.20;2.30;;;;;;;;;;5128760;27;20403;-93
2021/08/19 02:31:49;;;;;;;3.08;2.20;;;;;;;;;;5134462;27;20405;-92
2021/08/19 02:34:16;;;;;;;3.25;2.30;;;;;;;;;;5129739;27;20426;-91
2021/08/19 02:36:44;;;;;;;3.13;2.03;;;;;;;;;;5129692;27;20918;-93
2021/08/19 02:39:11;;;;;;;3.22;2.40;;;;;;;;;;5126030;27;20407;-92
2021/08/19 02:41:38;;;;;;;3.25;2.20;;;;;;;;;;5134180;27;20392;-91
2021/08/19 02:44:05;;;;;;;4.00;2.28;;;;;;;;;;5130914;27;20397;-91
2021/08/19 02:46:32;;;;;;;3.88;2.40;;;;;;;;;;5132652;27;20394;-92
2021/08/19 02:48:59;;;;;;;3.88;2.28;;;;;;;;;;5133472;27;20392;-92
2021/08/19 02:51:26;;;;;;;3.30;2.60;;;;;;;;;;5133127;27;20901;-93
2021/08/19 02:53:54;;;;;;;3.07;2.37;;;;;;;;;;5121102;27;20406;-92
2021/08/19 02:56:22;;;;;;;3.35;2.50;;;;;;;;;;5117761;27;20393;-91
2021/08/19 02:58:48;;;;;;;4.97;2.30;;;;;;;;;;5115030;27;20468;-90
2021/08/19 03:01:15;;;;;;;4.20;2.40;;;;;;;;;;5117920;27;20493;-93
2021/08/19 03:03:42;;;;;;;2.78;2.40;;;;;;;;;;5114974;27;20407;-92
2021/08/19 03:06:09;;;;;;;3.67;2.70;;;;;;;;;;5115100;27;20800;-92
2021/08/19 03:08:36;;;;;;;4.43;2.40;;;;;;;;;;5117959;27;20465;-92
2021/08/19 03:11:04;;;;;;;3.15;2.50;;;;;;;;;;5115413;27;20405;-92
2021/08/19 03:13:31;;;;;;;2.88;2.22;;;;;;;;;;5117329;27;20467;-92
2021/08/19 03:15:58;;;;;;;3.10;2.42;;;;;;;;;;5112060;27;20762;-91
2021/08/19 03:18:25;;;;;;;3.00;2.38;;;;;;;;;;5110915;27;20414;-91
2021/08/19 03:20:52;;;;;;;3.65;2.40;;;;;;;;;;5114480;27;20407;-92
2021/08/19 03:23:19;;;;;;;2.58;2.10;;;;;;;;;;5115527;27;20479;-92
2021/08/19 03:25:45;;;;;;;3.08;2.30;;;;;;;;;;5118351;27;20421;-91
2021/08/19 03:28:14;;;;;;;3.78;2.40;;;;;;;;;;5115047;27;20464;-91
2021/08/19 03:30:42;;;;;;;3.08;2.40;;;;;;;;;;5105921;27;20393;-92
2021/08/19 03:33:09;;;;;;;4.60;2.40;;;;;;;;;;5100838;28;20393;-92
2021/08/19 03:35:36;;;;;;;3.13;2.38;;;;;;;;;;5117406;27;20484;-92
2021/08/19 03:38:02;;;;;;;3.13;2.30;;;;;;;;;;5113520;27;20418;-91
2021/08/19 03:40:29;;;;;;;3.58;2.20;;;;;;;;;;5113813;27;20399;-91
2021/08/19 03:42:56;;;;;;;3.90;2.40;;;;;;;;;;5113228;27;20792;-91
2021/08/19 03:45:24;;;;;;;3.80;2.40;;;;;;;;;;5114055;27;20425;-90
2021/08/19 03:47:51;;;;;;;4.22;2.80;;;;;;;;;;5116590;27;20393;-91
2021/08/19 03:50:18;;;;;;;4.07;2.75;;;;;;;;;;5113933;27;20758;-91
2021/08/19 03:52:45;;;;;;;9.82;2.70;;;;;;;;;;5114122;27;20389;-90
2021/08/19 03:55:12;;;;;;;4.32;2.95;;;;;;;;;;5113563;27;20413;-91
2021/08/19 03:57:39;;;;;;;7.30;3.60;;;;;;;;;;5113691;27;20438;-90
2021/08/19 04:00:07;;;;;;;4.68;3.20;;;;;;;;;;5117242;27;20389;-92
2021/08/19 04:02:36;;;;;;;4.13;3.20;;;;;;;;;;5110253;27;21756;-92
2021/08/19 04:05:03;;;;;;;5.78;3.90;;;;;;;;;;5116260;27;20807;-91
2021/08/19 04:07:29;;;;;;;5.55;3.60;;;;;;;;;;5115047;27;20406;-91
2021/08/19 04:09:56;;;;;;;5.20;3.35;;;;;;;;;;5113718;27;20398;-91
2021/08/19 04:12:23;;;;;;;5.40;3.50;;;;;;;;;;5115311;27;20757;-92
2021/08/19 04:14:50;;;;;;;4.82;3.50;;;;;;;;;;5112826;27;20890;-91
2021/08/19 04:17:17;;;;;;;4.45;3.50;;;;;;;;;;5117223;27;20417;-91
2021/08/19 04:19:45;;;;;;;5.22;3.70;;;;;;;;;;5120348;27;20413;-89
2021/08/19 04:22:12;;;;;;;5.53;3.30;;;;;;;;;;5113504;27;20393;-92
2021/08/19 04:24:39;;;;;;;5.88;3.47;;;;;;;;;;5113454;27;20502;-91
2021/08/19 04:27:06;;;;;;;5.00;3.17;;;;;;;;;;5098108;27;20404;-91
2021/08/19 04:29:33;;;;;;;4.20;3.17;;;;;;;;;;5117134;27;20404;-92
2021/08/19 04:32:00;;;;;;;4.72;3.05;;;;;;;;;;5112481;27;20394;-92
2021/08/19 04:34:27;;;;;;;4.97;3.00;;;;;;;;;;5112406;27;20407;-90
2021/08/19 04:36:56;;;;;;;4.70;3.10;;;;;;;;;;5114907;27;20756;-91
2021/08/19 04:39:23;;;;;;;5.20;3.15;;;;;;;;;;5114150;27;20902;-90
2021/08/19 04:41:50;;;;;;;4.75;3.47;;;;;;;;;;5097575;27;20484;-91
2021/08/19 04:44:17;;;;;;;5.07;3.35;;;;;;;;;;5112840;27;20394;-91
2021/08/19 04:46:44;;;;;;;4.38;2.63;;;;;;;;;;5116646;27;20644;-90
2021/08/19 04:49:11;;;;;;;4.35;3.40;;;;;;;;;;5112114;27;20877;-91
2021/08/19 04:51:38;;;;;;;4.43;3.25;;;;;;;;;;5116603;27;20389;-92
2021/08/19 04:54:06;;;;;;;5.68;3.20;;;;;;;;;;5113138;27;20748;-91
2021/08/19 04:56:37;;;;;;;4.60;3.17;;;;;;;;;;5112411;27;20392;-90
2021/08/19 04:59:04;;;;;;;4.40;3.25;;;;;;;;;;5114666;27;20965;-91
2021/08/19 05:01:31;;;;;;;4.45;2.90;;;;;;;;;;5115122;27;20671;-90
2021/08/19 05:03:59;;;;;;;4.60;3.30;;;;;;;;;;5115943;27;20755;-90
2021/08/19 05:06:26;;;;;;;3.63;3.13;;;;;;;;;;5114350;27;20820;-92
2021/08/19 05:08:54;;;;;;;4.22;3.10;;;;;;;;;;5112670;27;20768;-91
2021/08/19 05:11:22;;;;;;;4.43;3.45;;;;;;;;;;5116355;27;20400;-89
2021/08/19 05:13:50;;;;;;;4.50;2.97;;;;;;;;;;5112946;27;20411;-90
2021/08/19 05:16:17;;;;;;;4.53;2.97;;;;;;;;;;5115967;27;20391;-91
2021/08/19 05:18:44;;;;;;;4.82;3.10;;;;;;;;;;5115804;27;20426;-91
2021/08/19 05:21:11;;;;;;;3.30;2.65;;;;;;;;;;5108371;27;20437;-91
2021/08/19 05:23:38;;;;;;;5.50;3.28;;;;;;;;;;5115080;27;20943;-89
2021/08/19 05:26:05;;;;;;;5.85;3.17;;;;;;;;;;5108524;27;20738;-89
2021/08/19 05:28:33;;;;;;;5.72;3.00;;;;;;;;;;5114572;27;20423;-90
2021/08/19 05:31:00;;;;;;;3.70;2.90;;;;;;;;;;5110593;28;20468;-91
2021/08/19 05:33:27;;;;;;;3.83;2.80;;;;;;;;;;5111300;27;20398;-90
2021/08/19 05:35:54;;;;;;;4.90;2.88;;;;;;;;;;5113596;28;20401;-89
2021/08/19 05:38:23;;;;;;;5.32;2.97;;;;;;;;;;5108536;28;20413;-92
2021/08/19 05:40:49;;;;;;;3.72;2.58;;;;;;;;;;5112508;28;20398;-91
2021/08/19 06:01:24;;;;;;;5.53;2.80;;;;;;;;;;5854560;22;20683;-81
2021/08/19 07:29:13;;;;;;;4.60;2.40;;;;;;;;;;5008164;28;20392;-96
2021/08/19 07:32:23;;;;;;;3.27;2.10;;;;;;;;;;4982647;28;20474;-96
2021/08/19 07:38:23;;;;;;;5.25;2.60;;;;;;;;;;4997747;28;20417;-96
2021/08/19 07:44:11;;;;;;;3.30;2.30;;;;;;;;;;4999554;28;20443;-96
2021/08/19 08:10:25;;;;;;;3.28;2.10;;;;;;;;;;4923098;29;20454;-96
2021/08/19 15:58:25;;;;;;;2.33;1.80;;;;;;;;;;5085803;23;20419;-86
2021/08/19 16:00:52;;;;;;;1.90;1.63;;;;;;;;;;4977838;28;20422;-86
2021/08/19 16:03:19;;;;;;;2.17;1.80;;;;;;;;;;4988463;28;20411;-87
2021/08/19 16:05:46;;;;;;;2.35;1.70;;;;;;;;;;4983696;28;20409;-85
2021/08/19 16:08:13;;;;;;;1.95;1.40;;;;;;;;;;4982407;28;20419;-84
2021/08/19 16:10:40;;;;;;;2.60;1.60;;;;;;;;;;4987379;28;20409;-86
2021/08/19 16:13:07;;;;;;;2.10;1.70;;;;;;;;;;4984643;28;20441;-86
2021/08/19 16:15:35;;;;;;;1.98;1.65;;;;;;;;;;4983435;28;20461;-85
2021/08/19 16:18:02;;;;;;;1.80;1.50;;;;;;;;;;4989157;28;20423;-86
2021/08/19 16:20:29;;;;;;;3.03;1.73;;;;;;;;;;4983227;28;21136;-86
2021/08/19 16:22:56;;;;;;;1.65;1.55;;;;;;;;;;4985526;28;20403;-84
2021/08/19 16:25:23;;;;;;;3.33;1.70;;;;;;;;;;4988263;28;20414;-85
2021/08/19 16:27:50;;;;;;;1.80;1.50;;;;;;;;;;4985440;28;20409;-86
2021/08/19 16:30:18;;;;;;;1.70;1.50;;;;;;;;;;4972694;28;20419;-86
2021/08/19 16:32:46;;;;;;;1.70;1.60;;;;;;;;;;4985590;28;20482;-85
2021/08/19 16:35:13;;;;;;;3.30;1.73;;;;;;;;;;4979998;28;20415;-86
2021/08/19 16:37:40;;;;;;;2.88;1.65;;;;;;;;;;4971432;28;20433;-85
2021/08/19 16:40:08;;;;;;;2.30;1.67;;;;;;;;;;4971526;28;20418;-86
2021/08/19 16:42:35;;;;;;;1.75;1.60;;;;;;;;;;4987149;28;20408;-86
2021/08/19 16:45:02;;;;;;;3.22;1.58;;;;;;;;;;4974664;28;20428;-84
2021/08/19 16:47:31;;;;;;;1.63;1.52;;;;;;;;;;4982635;28;20412;-85
2021/08/19 16:49:59;;;;;;;3.65;1.75;;;;;;;;;;4979326;28;20852;-86
2021/08/19 16:52:26;;;;;;;2.70;1.60;;;;;;;;;;4981606;28;20403;-86
2021/08/19 16:54:53;;;;;;;2.38;1.55;;;;;;;;;;4973103;28;21000;-86
2021/08/19 16:57:20;;;;;;;2.38;1.65;;;;;;;;;;4981453;28;20599;-85
2021/08/19 16:59:47;;;;;;;3.13;1.53;;;;;;;;;;4983093;28;20404;-85
2021/08/19 17:02:13;;;;;;;2.15;1.60;;;;;;;;;;4982236;28;20416;-85
2021/08/19 17:04:40;;;;;;;2.53;1.60;;;;;;;;;;4976933;28;20451;-85
2021/08/19 17:07:09;;;;;;;2.67;1.60;;;;;;;;;;4977324;28;20417;-85
2021/08/19 17:09:36;;;;;;;1.92;1.70;;;;;;;;;;4973788;28;21028;-86
2021/08/19 17:12:03;;;;;;;2.50;1.75;;;;;;;;;;4978673;28;20477;-85
2021/08/19 17:14:30;;;;;;;1.70;1.50;;;;;;;;;;4984830;28;20403;-85
2021/08/19 17:16:57;;;;;;;3.10;1.63;;;;;;;;;;4986321;28;20415;-85
2021/08/19 17:19:24;;;;;;;2.03;1.35;;;;;;;;;;4977585;28;20625;-85
2021/08/19 17:21:51;;;;;;;2.35;1.50;;;;;;;;;;4970852;28;20441;-84
2021/08/19 17:24:20;;;;;;;2.97;1.40;;;;;;;;;;4980177;28;21300;-86
2021/08/19 17:26:47;;;;;;;2.17;1.63;;;;;;;;;;4976691;28;20416;-85
2021/08/19 17:29:13;;;;;;;2.13;1.70;;;;;;;;;;4981691;28;20428;-85
2021/08/19 17:31:43;;;;;;;2.80;1.60;;;;;;;;;;4974635;28;20425;-84
2021/08/19 17:34:10;;;;;;;2.50;1.48;;;;;;;;;;4994150;28;20405;-85
2021/08/19 17:36:39;;;;;;;2.10;1.60;;;;;;;;;;4992728;28;21695;-85
2021/08/19 17:39:06;;;;;;;2.50;1.70;;;;;;;;;;4993937;28;20416;-85
2021/08/19 17:41:34;;;;;;;6.85;2.90;;;;;;;;;;4987565;28;21253;-84
2021/08/19 17:44:01;;;;;;;7.78;2.97;;;;;;;;;;4987176;28;20415;-86
2021/08/19 17:46:28;;;;;;;9.07;3.67;;;;;;;;;;4983924;28;20588;-85
2021/08/19 17:48:55;;;;;;;6.13;2.88;;;;;;;;;;4975106;28;20429;-84
2021/08/19 17:51:21;;;;;;;3.22;2.10;;;;;;;;;;4976769;28;20407;-87
2021/08/19 17:53:48;;;;;;;2.78;1.60;;;;;;;;;;4982905;28;20417;-86
2021/08/19 17:56:15;;;;;;;2.17;1.58;;;;;;;;;;4993274;28;20466;-86
2021/08/19 17:58:44;;;;;;;1.73;1.50;;;;;;;;;;4992398;28;20403;-86
2021/08/19 18:01:11;;;;;;;4.13;1.70;;;;;;;;;;4993135;28;20411;-85
2021/08/19 18:03:38;;;;;;;1.77;1.63;;;;;;;;;;4993199;28;20455;-86
2021/08/19 18:06:07;;;;;;;3.03;1.70;;;;;;;;;;4991890;28;20754;-85
2021/08/19 18:08:34;;;;;;;2.78;1.80;;;;;;;;;;4986728;28;20418;-86
2021/08/19 18:11:01;;;;;;;2.80;1.83;;;;;;;;;;4990039;28;20410;-85
2021/08/19 18:13:28;;;;;;;3.60;1.95;;;;;;;;;;4992208;28;20502;-85
2021/08/19 18:15:56;;;;;;;2.78;1.85;;;;;;;;;;4999681;28;20459;-85
2021/08/19 18:18:23;;;;;;;3.75;2.13;;;;;;;;;;4979898;28;20762;-85
2021/08/19 18:20:50;;;;;;;4.00;2.17;;;;;;;;;;4974835;28;20409;-86
2021/08/19 18:23:16;;;;;;;3.90;2.30;;;;;;;;;;4982659;28;20410;-85
2021/08/19 18:25:44;;;;;;;4.78;2.35;;;;;;;;;;4975744;28;20951;-85
2021/08/19 18:28:11;;;;;;;3.90;2.10;;;;;;;;;;4978931;28;20417;-86
2021/08/19 18:30:37;;;;;;;3.33;2.20;;;;;;;;;;4975241;28;20438;-87
2021/08/19 18:33:06;;;;;;;3.72;2.10;;;;;;;;;;4972635;28;20419;-86
2021/08/19 18:35:33;;;;;;;3.55;2.00;;;;;;;;;;4972598;28;20423;-86
2021/08/19 18:37:59;;;;;;;2.50;1.70;;;;;;;;;;4976742;28;20418;-86
2021/08/19 18:40:26;;;;;;;3.80;2.03;;;;;;;;;;4976289;28;20795;-85
2021/08/19 18:42:53;;;;;;;3.17;2.03;;;;;;;;;;4982619;28;20498;-90
2021/08/19 18:45:20;;;;;;;3.85;2.03;;;;;;;;;;4994070;28;20416;-86
2021/08/19 18:47:47;;;;;;;3.53;2.13;;;;;;;;;;4980545;28;20426;-87
2021/08/19 18:50:15;;;;;;;4.22;1.80;;;;;;;;;;4990821;28;20439;-87
2021/08/19 18:52:45;;;;;;;5.13;2.00;;;;;;;;;;4989144;28;20416;-86
2021/08/19 18:55:12;;;;;;;3.72;1.90;;;;;;;;;;4987099;28;20499;-86
2021/08/19 18:57:39;;;;;;;3.42;2.05;;;;;;;;;;4985634;28;20756;-85
2021/08/19 19:00:08;;;;;;;2.60;1.80;;;;;;;;;;4985581;28;20423;-86
2021/08/19 19:02:35;;;;;;;2.35;1.70;;;;;;;;;;4970395;28;20426;-86
2021/08/19 19:05:02;;;;;;;3.10;2.00;;;;;;;;;;4970790;28;20417;-86
2021/08/19 19:07:30;;;;;;;2.17;1.90;;;;;;;;;;4976344;28;20406;-86
2021/08/19 19:09:57;;;;;;;3.25;1.77;;;;;;;;;;4981740;28;20425;-85
2021/08/19 19:12:24;;;;;;;3.03;2.00;;;;;;;;;;4979366;28;20417;-86
2021/08/19 19:14:50;;;;;;;2.00;1.75;;;;;;;;;;4980326;28;20491;-85
2021/08/19 19:17:17;;;;;;;4.75;2.25;;;;;;;;;;4974281;28;20412;-86
2021/08/19 19:19:44;;;;;;;3.58;2.10;;;;;;;;;;4978056;28;20421;-85
2021/08/19 19:22:11;;;;;;;3.58;2.00;;;;;;;;;;4979423;28;20409;-86
2021/08/19 19:24:39;;;;;;;4.88;2.00;;;;;;;;;;4976862;28;20410;-86
2021/08/19 19:27:06;;;;;;;3.50;2.13;;;;;;;;;;4977687;28;20780;-86
2021/08/19 19:29:33;;;;;;;2.85;2.15;;;;;;;;;;4986043;28;20911;-87
2021/08/19 19:32:00;;;;;;;3.50;2.40;;;;;;;;;;4977367;28;20410;-86
2021/08/19 19:34:27;;;;;;;3.20;2.13;;;;;;;;;;4979875;28;20925;-85
2021/08/19 19:36:53;;;;;;;3.70;2.22;;;;;;;;;;4981470;28;20409;-85
2021/08/19 19:39:20;;;;;;;6.05;2.38;;;;;;;;;;4981292;28;20421;-86
2021/08/19 19:41:48;;;;;;;4.15;2.30;;;;;;;;;;4981646;28;20411;-85
2021/08/19 19:44:15;;;;;;;4.68;2.50;;;;;;;;;;4975004;28;20420;-86
2021/08/19 19:46:42;;;;;;;3.00;2.20;;;;;;;;;;4983755;28;20413;-86
2021/08/19 19:49:09;;;;;;;3.40;2.00;;;;;;;;;;4979242;28;20405;-86
2021/08/19 19:51:36;;;;;;;4.30;2.17;;;;;;;;;;4975166;28;20414;-86
2021/08/19 19:54:03;;;;;;;3.77;2.20;;;;;;;;;;4981322;28;20411;-85
2021/08/19 19:56:30;;;;;;;3.53;1.92;;;;;;;;;;4978442;28;20424;-85
2021/08/19 19:58:58;;;;;;;3.03;2.20;;;;;;;;;;4980048;28;20936;-85
2021/08/19 20:01:25;;;;;;;2.97;2.40;;;;;;;;;;4980594;28;21368;-86
2021/08/19 20:03:52;;;;;;;2.58;2.10;;;;;;;;;;4980183;28;20486;-85
2021/08/19 20:06:18;;;;;;;3.40;2.20;;;;;;;;;;4980142;28;20409;-85
2021/08/19 20:08:45;;;;;;;2.88;2.00;;;;;;;;;;4975047;28;20411;-85
2021/08/19 20:11:12;;;;;;;3.90;2.08;;;;;;;;;;4971310;28;20433;-85
2021/08/19 20:13:39;;;;;;;3.55;2.22;;;;;;;;;;4975532;28;20410;-85
2021/08/19 20:16:08;;;;;;;4.85;2.47;;;;;;;;;;4982465;28;20403;-85
2021/08/19 20:18:35;;;;;;;3.13;2.30;;;;;;;;;;4987961;28;20447;-85
2021/08/19 20:21:01;;;;;;;3.50;2.40;;;;;;;;;;4988305;28;21349;-85
2021/08/19 20:23:28;;;;;;;3.78;2.50;;;;;;;;;;4980840;28;20418;-85
2021/08/19 20:25:55;;;;;;;3.42;2.60;;;;;;;;;;4985891;28;20432;-86
2021/08/19 20:28:22;;;;;;;6.80;2.78;;;;;;;;;;4980410;28;20416;-85
2021/08/19 20:30:49;;;;;;;4.30;2.65;;;;;;;;;;4982830;28;20438;-86
2021/08/19 20:33:17;;;;;;;4.80;2.67;;;;;;;;;;4975501;28;20413;-84
2021/08/19 20:35:44;;;;;;;6.38;2.80;;;;;;;;;;4972675;28;20407;-91
2021/08/19 20:38:11;;;;;;;3.00;2.70;;;;;;;;;;4973294;28;20426;-84
2021/08/19 20:40:38;;;;;;;4.63;2.92;;;;;;;;;;4973533;28;20406;-84
2021/08/19 20:43:05;;;;;;;4.97;3.17;;;;;;;;;;4976576;28;20434;-85
2021/08/19 20:45:32;;;;;;;6.43;3.22;;;;;;;;;;4971593;28;20429;-86
2021/08/19 20:47:59;;;;;;;4.82;3.28;;;;;;;;;;4972496;28;20480;-87
2021/08/19 20:50:28;;;;;;;4.05;3.28;;;;;;;;;;4967978;28;20443;-87
2021/08/19 20:52:56;;;;;;;3.55;3.00;;;;;;;;;;4971426;28;20422;-86
2021/08/19 20:55:23;;;;;;;4.45;3.30;;;;;;;;;;4973022;28;21226;-85
2021/08/19 20:57:50;;;;;;;4.88;3.42;;;;;;;;;;4972037;28;20422;-87
2021/08/19 21:00:17;;;;;;;5.38;3.53;;;;;;;;;;4977885;28;20404;-87
2021/08/19 21:02:43;;;;;;;4.57;3.53;;;;;;;;;;4971992;28;20898;-86
2021/08/19 21:05:11;;;;;;;6.53;3.30;;;;;;;;;;4968667;28;20426;-87
2021/08/19 21:07:39;;;;;;;5.07;3.40;;;;;;;;;;4966910;28;20634;-87
2021/08/19 21:10:07;;;;;;;4.72;3.40;;;;;;;;;;4966221;28;20434;-87
2021/08/19 21:12:34;;;;;;;6.68;3.65;;;;;;;;;;4971863;28;20765;-87
2021/08/19 21:15:01;;;;;;;4.15;3.53;;;;;;;;;;4977986;28;20791;-88
2021/08/19 21:17:28;;;;;;;5.03;3.22;;;;;;;;;;4972193;28;20401;-86
2021/08/19 21:19:56;;;;;;;4.13;3.30;;;;;;;;;;4979002;28;20423;-85
2021/08/19 21:22:23;;;;;;;4.70;3.40;;;;;;;;;;4975271;28;20799;-86
2021/08/19 21:24:51;;;;;;;5.88;3.42;;;;;;;;;;4980664;28;20419;-85
2021/08/19 21:27:18;;;;;;;6.95;3.90;;;;;;;;;;4980654;28;20466;-86
2021/08/19 21:29:44;;;;;;;5.68;3.83;;;;;;;;;;4986715;28;20426;-87
2021/08/19 21:32:11;;;;;;;4.70;3.67;;;;;;;;;;4999508;23;20425;-90
2021/08/19 21:34:38;;;;;;;6.53;4.00;;;;;;;;;;4990278;28;20426;-91
2021/08/19 21:37:05;;;;;;;7.93;4.28;;;;;;;;;;4984806;28;20416;-92
2021/08/19 21:39:32;;;;;;;5.80;3.90;;;;;;;;;;4993697;28;20826;-92
2021/08/19 21:42:02;;;;;;;6.57;4.50;;;;;;;;;;4970412;28;20872;-92
2021/08/19 21:44:29;;;;;;;6.80;4.17;;;;;;;;;;4992687;28;20403;-91
2021/08/19 21:46:56;;;;;;;8.48;4.80;;;;;;;;;;4987837;28;20420;-91
2021/08/19 21:49:23;;;;;;;5.38;4.63;;;;;;;;;;4990438;28;20422;-92
2021/08/19 21:51:51;;;;;;;7.43;5.20;;;;;;;;;;4985530;28;20974;-90
2021/08/19 21:54:18;;;;;;;6.95;4.97;;;;;;;;;;4991607;28;20407;-91
2021/08/19 21:56:45;;;;;;;6.40;4.82;;;;;;;;;;4991880;28;20402;-91
2021/08/19 21:59:13;;;;;;;5.78;4.50;;;;;;;;;;4990487;28;20409;-91
2021/08/19 22:01:41;;;;;;;5.38;4.45;;;;;;;;;;4989365;28;20411;-91
2021/08/19 22:04:08;;;;;;;5.90;4.72;;;;;;;;;;4989557;28;20415;-92
2021/08/19 22:06:36;;;;;;;9.75;4.97;;;;;;;;;;4991801;28;20646;-92
2021/08/19 22:09:02;;;;;;;4.95;4.10;;;;;;;;;;4992775;28;20417;-92
2021/08/19 22:11:29;;;;;;;5.55;4.40;;;;;;;;;;4994844;28;20431;-92
2021/08/19 22:13:56;;;;;;;6.80;4.55;;;;;;;;;;4976920;28;20809;-91
2021/08/19 22:16:25;;;;;;;5.00;3.88;;;;;;;;;;4992832;28;20423;-91
2021/08/19 22:18:52;;;;;;;5.68;4.13;;;;;;;;;;4996750;28;20405;-91
2021/08/19 22:21:19;;;;;;;4.82;3.75;;;;;;;;;;4996903;28;20434;-91
2021/08/19 22:23:46;;;;;;;5.97;3.25;;;;;;;;;;4994376;28;20540;-92
2021/08/19 22:26:13;;;;;;;3.92;3.25;;;;;;;;;;4992335;28;20407;-91
2021/08/19 22:28:40;;;;;;;4.13;3.35;;;;;;;;;;4987043;28;20479;-92
2021/08/19 22:31:07;;;;;;;6.03;3.60;;;;;;;;;;4991781;28;20427;-92
2021/08/19 22:33:36;;;;;;;3.70;3.20;;;;;;;;;;4984648;28;20687;-91
2021/08/19 22:36:03;;;;;;;5.35;3.28;;;;;;;;;;4991723;28;20414;-92
2021/08/19 22:38:31;;;;;;;4.43;3.08;;;;;;;;;;4990248;28;20411;-91
2021/08/19 22:40:57;;;;;;;3.53;3.10;;;;;;;;;;4991747;28;20412;-91
2021/08/19 22:43:24;;;;;;;4.75;3.10;;;;;;;;;;4980953;28;20431;-91
2021/08/19 22:45:51;;;;;;;4.75;2.90;;;;;;;;;;4989646;28;20955;-92
2021/08/19 22:48:18;;;;;;;4.07;3.03;;;;;;;;;;4989182;28;20440;-91
2021/08/19 22:50:48;;;;;;;5.40;3.53;;;;;;;;;;4971499;28;20414;-91
2021/08/19 22:53:15;;;;;;;4.68;3.55;;;;;;;;;;4982996;28;20471;-91
2021/08/19 22:55:42;;;;;;;4.50;3.88;;;;;;;;;;4983610;28;20446;-92
2021/08/19 22:58:11;;;;;;;3.90;3.42;;;;;;;;;;4991363;28;20409;-92
2021/08/19 23:00:38;;;;;;;5.80;4.00;;;;;;;;;;4990560;28;20410;-91
2021/08/19 23:03:05;;;;;;;6.85;3.65;;;;;;;;;;4981808;28;20411;-92
2021/08/19 23:05:32;;;;;;;4.80;3.90;;;;;;;;;;4991541;28;20958;-92
2021/08/19 23:08:01;;;;;;;4.47;3.60;;;;;;;;;;4989200;28;20797;-90
2021/08/19 23:10:27;;;;;;;4.68;3.70;;;;;;;;;;4995377;28;20419;-91
2021/08/19 23:12:54;;;;;;;4.43;3.63;;;;;;;;;;4987754;28;20400;-92
2021/08/19 23:15:21;;;;;;;5.60;4.10;;;;;;;;;;4987130;28;20408;-92
2021/08/19 23:17:48;;;;;;;5.57;4.18;;;;;;;;;;4986143;28;20423;-92
2021/08/19 23:20:16;;;;;;;6.17;4.00;;;;;;;;;;4991042;28;20399;-91
2021/08/19 23:22:43;;;;;;;4.53;3.60;;;;;;;;;;4991290;28;20471;-91
2021/08/19 23:25:12;;;;;;;4.30;3.37;;;;;;;;;;4985191;28;20415;-91
2021/08/19 23:27:39;;;;;;;6.38;3.78;;;;;;;;;;4997367;28;20415;-92
2021/08/19 23:30:07;;;;;;;4.10;3.70;;;;;;;;;;4995818;28;20934;-91
2021/08/19 23:32:34;;;;;;;6.15;3.88;;;;;;;;;;4982869;28;20411;-92
2021/08/19 23:35:01;;;;;;;4.80;3.92;;;;;;;;;;4983633;28;20956;-91
2021/08/19 23:37:28;;;;;;;5.32;4.07;;;;;;;;;;4986276;28;20413;-91
2021/08/19 23:39:56;;;;;;;4.47;4.00;;;;;;;;;;4992482;28;20405;-91
2021/08/19 23:42:25;;;;;;;4.68;4.18;;;;;;;;;;4989605;28;20417;-91
2021/08/19 23:44:52;;;;;;;4.57;3.80;;;;;;;;;;4986942;28;20444;-91
2021/08/19 23:47:19;;;;;;;4.72;3.92;;;;;;;;;;4985469;28;20413;-91
2021/08/19 23:49:46;;;;;;;4.80;3.83;;;;;;;;;;4991887;28;20411;-92
2021/08/19 23:52:13;;;;;;;4.45;3.92;;;;;;;;;;4995351;28;20441;-91
2021/08/19 23:54:40;;;;;;;5.57;3.92;;;;;;;;;;5000040;28;20532;-91
2021/08/19 23:57:07;;;;;;;4.55;4.05;;;;;;;;;;4994646;28;20413;-91
2021/08/19 23:59:36;;;;;;;4.68;4.15;;;;;;;;;;4985562;28;20504;-92
